PWSweather.com
Personal Weather Stations
Station Observations
PICKERING
North Yorkshire, PickeringGB

North YorkshirePickeringGB

Lat: 54.2494, Lon: -0.7725

Elevation: 192

Station Type: Oregon Scientific WMR100

http://www.yorkshirewalker.co.uk/weather/

High Low Average
Temperature 41.0°F5.0°C 18.7°F-7.4°C 29.9°F-1.2°C
Dew Point 33.8°F1.0°C 12.2°F-11.0°C 23.8°F-4.6°C
Winds 5.5 mph 8.9 kmh Calm Calm 1.0 mph SE1.6 kmh SE
Wind Gusts 9.4 mph15.1 kmh -- 3.0 mph4.8 kmh
Humidity 82% 72% 78%
Pressure 29.68 in1005.1 mb 29.41 in995.9 mb -
Precipitation 0.11 in2.8 mm - -
Hour Temp Dew Point Humidity Winds Wind Gusts Pressure Precip Precip Rate Daily Precip Total
12:00 AM 26.2°F-3.2°C 19.4°F-7.0°C 77% 0.5 mph S0.8 kmh S 2.0 mph3.2 kmh 29.62 in1003.0 mb 0.00 in0.0 mm 0.00 in0.0 mm 0.00 in0.0 mm
12:05 AM 25.9°F-3.4°C 19.4°F-7.0°C 77% 0.2 mph SSW0.3 kmh SSW 1.3 mph2.1 kmh 29.56 in1001.0 mb 0.00 in0.0 mm 0.00 in0.0 mm 0.00 in0.0 mm
12:10 AM 25.5°F-3.6°C 19.4°F-7.0°C 77% 0.1 mph SW0.2 kmh SW 0.9 mph1.4 kmh 29.56 in1001.0 mb 0.00 in0.0 mm 0.00 in0.0 mm 0.00 in0.0 mm
12:15 AM 25.7°F-3.5°C 19.4°F-7.0°C 77% 0.1 mph WNW0.2 kmh WNW 1.6 mph2.6 kmh 29.56 in1001.0 mb 0.00 in0.0 mm 0.00 in0.0 mm 0.00 in0.0 mm
12:20 AM 25.3°F-3.7°C 19.4°F-7.0°C 77% 0.1 mph NW0.2 kmh NW 1.6 mph2.6 kmh 29.62 in1003.0 mb 0.00 in0.0 mm 0.00 in0.0 mm 0.00 in0.0 mm
12:25 AM 25.2°F-3.8°C 19.4°F-7.0°C 78% Calm Calm -- 29.62 in1003.0 mb 0.00 in0.0 mm 0.00 in0.0 mm 0.00 in0.0 mm
12:30 AM 25.2°F-3.8°C 19.4°F-7.0°C 78% Calm Calm -- 29.62 in1003.0 mb 0.00 in0.0 mm 0.00 in0.0 mm 0.00 in0.0 mm
12:35 AM 24.8°F-4.0°C 17.6°F-8.0°C 78% Calm Calm -- 29.59 in1002.0 mb 0.00 in0.0 mm 0.00 in0.0 mm 0.00 in0.0 mm
12:40 AM 24.4°F-4.2°C 17.6°F-8.0°C 78% Calm Calm -- 29.59 in1002.0 mb 0.00 in0.0 mm 0.00 in0.0 mm 0.00 in0.0 mm
12:45 AM 24.6°F-4.1°C 17.6°F-8.0°C 78% Calm Calm -- 29.59 in1002.0 mb 0.00 in0.0 mm 0.00 in0.0 mm 0.00 in0.0 mm
12:50 AM 24.6°F-4.1°C 17.6°F-8.0°C 78% Calm Calm -- 29.62 in1003.0 mb 0.00 in0.0 mm 0.00 in0.0 mm 0.00 in0.0 mm
12:55 AM 24.4°F-4.2°C 17.6°F-8.0°C 78% Calm Calm -- 29.62 in1003.0 mb 0.00 in0.0 mm 0.00 in0.0 mm 0.00 in0.0 mm
01:00 AM 24.3°F-4.3°C 17.6°F-8.0°C 78% Calm Calm -- 29.62 in1003.0 mb 0.00 in0.0 mm 0.00 in0.0 mm 0.00 in0.0 mm
01:05 AM 24.1°F-4.4°C 17.6°F-8.0°C 78% Calm Calm -- 29.41 in995.9 mb 0.00 in0.0 mm 0.00 in0.0 mm 0.00 in0.0 mm
01:10 AM 23.5°F-4.7°C 15.8°F-9.0°C 78% Calm Calm -- 29.41 in995.9 mb 0.00 in0.0 mm 0.00 in0.0 mm 0.00 in0.0 mm
01:15 AM 23.7°F-4.6°C 15.8°F-9.0°C 78% 0.4 mph WSW0.6 kmh WSW 1.3 mph2.1 kmh 29.41 in995.9 mb 0.00 in0.0 mm 0.00 in0.0 mm 0.00 in0.0 mm
01:20 AM 23.7°F-4.6°C 17.6°F-8.0°C 79% 0.8 mph W1.3 kmh W 1.6 mph2.6 kmh 29.62 in1003.0 mb 0.00 in0.0 mm 0.00 in0.0 mm 0.00 in0.0 mm
01:25 AM 23.9°F-4.5°C 17.6°F-8.0°C 79% 0.7 mph NW1.1 kmh NW 2.0 mph3.2 kmh 29.62 in1003.0 mb 0.00 in0.0 mm 0.00 in0.0 mm 0.00 in0.0 mm
01:30 AM 23.5°F-4.7°C 17.6°F-8.0°C 79% 0.7 mph NNW1.1 kmh NNW 2.0 mph3.2 kmh 29.62 in1003.0 mb 0.00 in0.0 mm 0.00 in0.0 mm 0.00 in0.0 mm
01:35 AM 23.4°F-4.8°C 15.8°F-9.0°C 79% 0.7 mph NNW1.1 kmh NNW 1.3 mph2.1 kmh 29.62 in1003.0 mb 0.00 in0.0 mm 0.00 in0.0 mm 0.00 in0.0 mm
01:40 AM 23.4°F-4.8°C 15.8°F-9.0°C 79% 0.4 mph NNW0.6 kmh NNW 0.9 mph1.4 kmh 29.62 in1003.0 mb 0.00 in0.0 mm 0.00 in0.0 mm 0.00 in0.0 mm
01:45 AM 23.4°F-4.8°C 15.8°F-9.0°C 79% 0.2 mph NW0.3 kmh NW 0.9 mph1.4 kmh 29.62 in1003.0 mb 0.00 in0.0 mm 0.00 in0.0 mm 0.00 in0.0 mm
01:50 AM 23.4°F-4.8°C 15.8°F-9.0°C 79% 0.1 mph NNW0.2 kmh NNW 0.9 mph1.4 kmh 29.65 in1004.1 mb 0.00 in0.0 mm 0.00 in0.0 mm 0.00 in0.0 mm
01:55 AM 23.2°F-4.9°C 15.8°F-9.0°C 79% Calm Calm -- 29.65 in1004.1 mb 0.00 in0.0 mm 0.00 in0.0 mm 0.00 in0.0 mm
02:00 AM 23.0°F-5.0°C 15.8°F-9.0°C 79% Calm Calm -- 29.65 in1004.1 mb 0.00 in0.0 mm 0.00 in0.0 mm 0.00 in0.0 mm
02:05 AM 22.6°F-5.2°C 15.8°F-9.0°C 79% Calm Calm -- 29.45 in997.3 mb 0.00 in0.0 mm 0.00 in0.0 mm 0.00 in0.0 mm
02:10 AM 22.8°F-5.1°C 15.8°F-9.0°C 79% Calm Calm -- 29.45 in997.3 mb 0.00 in0.0 mm 0.00 in0.0 mm 0.00 in0.0 mm
02:15 AM 22.6°F-5.2°C 15.8°F-9.0°C 79% 0.2 mph NNW0.3 kmh NNW 1.1 mph1.8 kmh 29.45 in997.3 mb 0.00 in0.0 mm 0.00 in0.0 mm 0.00 in0.0 mm
02:20 AM 22.5°F-5.3°C 15.8°F-9.0°C 79% 0.3 mph NNW0.5 kmh NNW 1.1 mph1.8 kmh 29.65 in1004.1 mb 0.00 in0.0 mm 0.00 in0.0 mm 0.00 in0.0 mm
02:25 AM 22.3°F-5.4°C 15.8°F-9.0°C 79% 0.2 mph N0.3 kmh N 1.1 mph1.8 kmh 29.65 in1004.1 mb 0.00 in0.0 mm 0.00 in0.0 mm 0.00 in0.0 mm
02:30 AM 22.1°F-5.5°C 15.8°F-9.0°C 79% 0.1 mph NNE0.2 kmh NNE 0.9 mph1.4 kmh 29.65 in1004.1 mb 0.00 in0.0 mm 0.00 in0.0 mm 0.00 in0.0 mm
02:35 AM 22.3°F-5.4°C 15.8°F-9.0°C 79% Calm Calm -- 29.65 in1004.1 mb 0.00 in0.0 mm 0.00 in0.0 mm 0.00 in0.0 mm
02:40 AM 22.1°F-5.5°C 15.8°F-9.0°C 79% 0.1 mph NW0.2 kmh NW 1.1 mph1.8 kmh 29.65 in1004.1 mb 0.00 in0.0 mm 0.00 in0.0 mm 0.00 in0.0 mm
02:45 AM 22.1°F-5.5°C 15.8°F-9.0°C 79% 0.1 mph NW0.2 kmh NW 1.1 mph1.8 kmh 29.65 in1004.1 mb 0.00 in0.0 mm 0.00 in0.0 mm 0.00 in0.0 mm
02:50 AM 22.3°F-5.4°C 15.8°F-9.0°C 79% Calm Calm -- 29.65 in1004.1 mb 0.00 in0.0 mm 0.00 in0.0 mm 0.00 in0.0 mm
02:55 AM 22.3°F-5.4°C 15.8°F-9.0°C 79% 0.1 mph SW0.2 kmh SW 0.9 mph1.4 kmh 29.65 in1004.1 mb 0.00 in0.0 mm 0.00 in0.0 mm 0.00 in0.0 mm
03:00 AM 22.1°F-5.5°C 15.8°F-9.0°C 79% Calm Calm 0.9 mph1.4 kmh 29.65 in1004.1 mb 0.00 in0.0 mm 0.00 in0.0 mm 0.00 in0.0 mm
03:05 AM 21.7°F-5.7°C 15.8°F-9.0°C 79% Calm Calm -- 29.65 in1004.1 mb 0.00 in0.0 mm 0.00 in0.0 mm 0.00 in0.0 mm
03:10 AM 21.6°F-5.8°C 14.0°F-10.0°C 79% 0.1 mph SW0.2 kmh SW 0.9 mph1.4 kmh 29.45 in997.3 mb 0.00 in0.0 mm 0.00 in0.0 mm 0.00 in0.0 mm
03:15 AM 21.4°F-5.9°C 14.0°F-10.0°C 79% 0.1 mph SW0.2 kmh SW 0.9 mph1.4 kmh 29.45 in997.3 mb 0.00 in0.0 mm 0.00 in0.0 mm 0.00 in0.0 mm
03:20 AM 21.4°F-5.9°C 14.0°F-10.0°C 79% Calm Calm -- 29.65 in1004.1 mb 0.00 in0.0 mm 0.00 in0.0 mm 0.00 in0.0 mm
03:25 AM 21.2°F-6.0°C 14.0°F-10.0°C 79% Calm Calm -- 29.65 in1004.1 mb 0.00 in0.0 mm 0.00 in0.0 mm 0.00 in0.0 mm
03:30 AM 21.2°F-6.0°C 14.0°F-10.0°C 79% Calm Calm -- 29.65 in1004.1 mb 0.00 in0.0 mm 0.00 in0.0 mm 0.00 in0.0 mm
03:35 AM 21.6°F-5.8°C 14.0°F-10.0°C 79% Calm Calm -- 29.65 in1004.1 mb 0.00 in0.0 mm 0.00 in0.0 mm 0.00 in0.0 mm
03:40 AM 21.4°F-5.9°C 14.0°F-10.0°C 79% Calm Calm -- 29.65 in1004.1 mb 0.00 in0.0 mm 0.00 in0.0 mm 0.00 in0.0 mm
03:45 AM 21.4°F-5.9°C 14.0°F-10.0°C 79% Calm Calm -- 29.65 in1004.1 mb 0.00 in0.0 mm 0.00 in0.0 mm 0.00 in0.0 mm
03:50 AM 21.6°F-5.8°C 14.0°F-10.0°C 79% Calm Calm -- 29.65 in1004.1 mb 0.00 in0.0 mm 0.00 in0.0 mm 0.00 in0.0 mm
03:55 AM 21.2°F-6.0°C 14.0°F-10.0°C 79% Calm Calm -- 29.65 in1004.1 mb 0.00 in0.0 mm 0.00 in0.0 mm 0.00 in0.0 mm
04:00 AM 21.0°F-6.1°C 14.0°F-10.0°C 79% Calm Calm -- 29.65 in1004.1 mb 0.00 in0.0 mm 0.00 in0.0 mm 0.00 in0.0 mm
04:05 AM 20.8°F-6.2°C 14.0°F-10.0°C 79% Calm Calm -- 29.65 in1004.1 mb 0.00 in0.0 mm 0.00 in0.0 mm 0.00 in0.0 mm
04:10 AM 20.8°F-6.2°C 14.0°F-10.0°C 79% Calm Calm -- 29.65 in1004.1 mb 0.00 in0.0 mm 0.00 in0.0 mm 0.00 in0.0 mm
04:15 AM 20.8°F-6.2°C 14.0°F-10.0°C 79% Calm Calm -- 29.65 in1004.1 mb 0.00 in0.0 mm 0.00 in0.0 mm 0.00 in0.0 mm
04:20 AM 20.7°F-6.3°C 14.0°F-10.0°C 79% Calm Calm -- 29.65 in1004.1 mb 0.00 in0.0 mm 0.00 in0.0 mm 0.00 in0.0 mm
04:25 AM 20.8°F-6.2°C 14.0°F-10.0°C 79% Calm Calm -- 29.65 in1004.1 mb 0.00 in0.0 mm 0.00 in0.0 mm 0.00 in0.0 mm
04:30 AM 20.8°F-6.2°C 14.0°F-10.0°C 79% 0.1 mph E0.2 kmh E 0.9 mph1.4 kmh 29.65 in1004.1 mb 0.00 in0.0 mm 0.00 in0.0 mm 0.00 in0.0 mm
04:35 AM 20.3°F-6.5°C 14.0°F-10.0°C 79% 0.1 mph E0.2 kmh E 0.9 mph1.4 kmh 29.65 in1004.1 mb 0.00 in0.0 mm 0.00 in0.0 mm 0.00 in0.0 mm
04:40 AM 19.9°F-6.7°C 14.0°F-10.0°C 79% Calm Calm -- 29.65 in1004.1 mb 0.00 in0.0 mm 0.00 in0.0 mm 0.00 in0.0 mm
04:45 AM 20.1°F-6.6°C 14.0°F-10.0°C 79% Calm Calm -- 29.65 in1004.1 mb 0.00 in0.0 mm 0.00 in0.0 mm 0.00 in0.0 mm
04:50 AM 19.9°F-6.7°C 14.0°F-10.0°C 79% Calm Calm -- 29.65 in1004.1 mb 0.00 in0.0 mm 0.00 in0.0 mm 0.00 in0.0 mm
04:55 AM 19.9°F-6.7°C 14.0°F-10.0°C 79% 0.1 mph E0.2 kmh E 0.9 mph1.4 kmh 29.65 in1004.1 mb 0.00 in0.0 mm 0.00 in0.0 mm 0.00 in0.0 mm
05:00 AM 20.1°F-6.6°C 14.0°F-10.0°C 79% 0.2 mph E0.3 kmh E 1.3 mph2.1 kmh 29.65 in1004.1 mb 0.00 in0.0 mm 0.00 in0.0 mm 0.00 in0.0 mm
05:05 AM 19.9°F-6.7°C 14.0°F-10.0°C 79% 0.1 mph E0.2 kmh E 1.3 mph2.1 kmh 29.65 in1004.1 mb 0.00 in0.0 mm 0.00 in0.0 mm 0.00 in0.0 mm
05:10 AM 19.8°F-6.8°C 12.2°F-11.0°C 79% Calm Calm -- 29.65 in1004.1 mb 0.00 in0.0 mm 0.00 in0.0 mm 0.00 in0.0 mm
05:15 AM 19.4°F-7.0°C 12.2°F-11.0°C 79% Calm Calm -- 29.65 in1004.1 mb 0.00 in0.0 mm 0.00 in0.0 mm 0.00 in0.0 mm
05:20 AM 19.9°F-6.7°C 14.0°F-10.0°C 79% 0.2 mph E0.3 kmh E 1.1 mph1.8 kmh 29.65 in1004.1 mb 0.00 in0.0 mm 0.00 in0.0 mm 0.00 in0.0 mm
05:25 AM 19.4°F-7.0°C 12.2°F-11.0°C 79% 0.2 mph E0.3 kmh E 1.1 mph1.8 kmh 29.65 in1004.1 mb 0.00 in0.0 mm 0.00 in0.0 mm 0.00 in0.0 mm
05:30 AM 19.4°F-7.0°C 12.2°F-11.0°C 79% Calm Calm -- 29.65 in1004.1 mb 0.00 in0.0 mm 0.00 in0.0 mm 0.00 in0.0 mm
05:35 AM 19.4°F-7.0°C 12.2°F-11.0°C 79% Calm Calm -- 29.65 in1004.1 mb 0.00 in0.0 mm 0.00 in0.0 mm 0.00 in0.0 mm
05:40 AM 19.2°F-7.1°C 12.2°F-11.0°C 79% Calm Calm -- 29.65 in1004.1 mb 0.00 in0.0 mm 0.00 in0.0 mm 0.00 in0.0 mm
05:45 AM 18.7°F-7.4°C 12.2°F-11.0°C 79% Calm Calm -- 29.65 in1004.1 mb 0.00 in0.0 mm 0.00 in0.0 mm 0.00 in0.0 mm
05:50 AM 19.0°F-7.2°C 12.2°F-11.0°C 79% Calm Calm -- 29.65 in1004.1 mb 0.00 in0.0 mm 0.00 in0.0 mm 0.00 in0.0 mm
05:55 AM 19.0°F-7.2°C 12.2°F-11.0°C 79% Calm Calm -- 29.65 in1004.1 mb 0.00 in0.0 mm 0.00 in0.0 mm 0.00 in0.0 mm
06:00 AM 18.7°F-7.4°C 12.2°F-11.0°C 79% 0.1 mph ENE0.2 kmh ENE 0.9 mph1.4 kmh 29.65 in1004.1 mb 0.00 in0.0 mm 0.00 in0.0 mm 0.00 in0.0 mm
06:05 AM 18.9°F-7.3°C 12.2°F-11.0°C 79% 0.2 mph ENE0.3 kmh ENE 0.9 mph1.4 kmh 29.65 in1004.1 mb 0.00 in0.0 mm 0.00 in0.0 mm 0.00 in0.0 mm
06:10 AM 18.9°F-7.3°C 12.2°F-11.0°C 79% 0.1 mph ENE0.2 kmh ENE 0.9 mph1.4 kmh 29.65 in1004.1 mb 0.00 in0.0 mm 0.00 in0.0 mm 0.00 in0.0 mm
06:15 AM 19.0°F-7.2°C 12.2°F-11.0°C 79% Calm Calm -- 29.65 in1004.1 mb 0.00 in0.0 mm 0.00 in0.0 mm 0.00 in0.0 mm
06:20 AM 19.0°F-7.2°C 12.2°F-11.0°C 79% 0.4 mph NE0.6 kmh NE 2.5 mph4.0 kmh 29.65 in1004.1 mb 0.00 in0.0 mm 0.00 in0.0 mm 0.00 in0.0 mm
06:25 AM 19.0°F-7.2°C 12.2°F-11.0°C 79% 1.5 mph NE2.4 kmh NE 3.6 mph5.8 kmh 29.65 in1004.1 mb 0.00 in0.0 mm 0.00 in0.0 mm 0.00 in0.0 mm
06:30 AM 19.0°F-7.2°C 12.2°F-11.0°C 79% 2.0 mph NE3.2 kmh NE 3.6 mph5.8 kmh 29.65 in1004.1 mb 0.00 in0.0 mm 0.00 in0.0 mm 0.00 in0.0 mm
06:35 AM 19.2°F-7.1°C 12.2°F-11.0°C 79% 1.2 mph NNE1.9 kmh NNE 3.6 mph5.8 kmh 29.65 in1004.1 mb 0.00 in0.0 mm 0.00 in0.0 mm 0.00 in0.0 mm
06:40 AM 19.0°F-7.2°C 12.2°F-11.0°C 79% 1.1 mph NE1.8 kmh NE 2.5 mph4.0 kmh 29.65 in1004.1 mb 0.00 in0.0 mm 0.00 in0.0 mm 0.00 in0.0 mm
06:45 AM 19.0°F-7.2°C 12.2°F-11.0°C 79% 1.4 mph NE2.3 kmh NE 2.9 mph4.7 kmh 29.65 in1004.1 mb 0.00 in0.0 mm 0.00 in0.0 mm 0.00 in0.0 mm
06:50 AM 19.2°F-7.1°C 12.2°F-11.0°C 79% 1.3 mph NE2.1 kmh NE 2.9 mph4.7 kmh 29.62 in1003.0 mb 0.00 in0.0 mm 0.00 in0.0 mm 0.00 in0.0 mm
06:55 AM 19.2°F-7.1°C 12.2°F-11.0°C 79% 1.1 mph NE1.8 kmh NE 2.9 mph4.7 kmh 29.62 in1003.0 mb 0.00 in0.0 mm 0.00 in0.0 mm 0.00 in0.0 mm
07:00 AM 19.4°F-7.0°C 12.2°F-11.0°C 79% 0.7 mph NE1.1 kmh NE 2.7 mph4.3 kmh 29.62 in1003.0 mb 0.00 in0.0 mm 0.00 in0.0 mm 0.00 in0.0 mm
07:05 AM 19.2°F-7.1°C 12.2°F-11.0°C 79% 0.3 mph NE0.5 kmh NE 1.6 mph2.6 kmh 29.59 in1002.0 mb 0.00 in0.0 mm 0.00 in0.0 mm 0.00 in0.0 mm
07:10 AM 19.4°F-7.0°C 12.2°F-11.0°C 79% 0.6 mph NE1.0 kmh NE 1.6 mph2.6 kmh 29.59 in1002.0 mb 0.00 in0.0 mm 0.00 in0.0 mm 0.00 in0.0 mm
07:15 AM 19.2°F-7.1°C 12.2°F-11.0°C 79% 0.4 mph NE0.6 kmh NE 1.6 mph2.6 kmh 29.59 in1002.0 mb 0.00 in0.0 mm 0.00 in0.0 mm 0.00 in0.0 mm
07:20 AM 19.0°F-7.2°C 12.2°F-11.0°C 79% Calm Calm -- 29.65 in1004.1 mb 0.00 in0.0 mm 0.00 in0.0 mm 0.00 in0.0 mm
07:25 AM 19.0°F-7.2°C 12.2°F-11.0°C 79% Calm Calm -- 29.65 in1004.1 mb 0.00 in0.0 mm 0.00 in0.0 mm 0.00 in0.0 mm
07:30 AM 19.0°F-7.2°C 12.2°F-11.0°C 79% Calm Calm -- 29.65 in1004.1 mb 0.00 in0.0 mm 0.00 in0.0 mm 0.00 in0.0 mm
07:35 AM 18.9°F-7.3°C 12.2°F-11.0°C 79% 0.1 mph NE0.2 kmh NE 0.9 mph1.4 kmh 29.65 in1004.1 mb 0.00 in0.0 mm 0.00 in0.0 mm 0.00 in0.0 mm
07:40 AM 18.7°F-7.4°C 12.2°F-11.0°C 79% 0.1 mph NE0.2 kmh NE 0.9 mph1.4 kmh 29.65 in1004.1 mb 0.00 in0.0 mm 0.00 in0.0 mm 0.00 in0.0 mm
07:45 AM 18.7°F-7.4°C 12.2°F-11.0°C 79% 0.1 mph NE0.2 kmh NE 0.9 mph1.4 kmh 29.65 in1004.1 mb 0.00 in0.0 mm 0.00 in0.0 mm 0.00 in0.0 mm
07:50 AM 18.9°F-7.3°C 12.2°F-11.0°C 79% 0.1 mph NE0.2 kmh NE 2.2 mph3.5 kmh 29.65 in1004.1 mb 0.00 in0.0 mm 0.00 in0.0 mm 0.00 in0.0 mm
07:55 AM 19.0°F-7.2°C 12.2°F-11.0°C 79% 0.3 mph NE0.5 kmh NE 2.2 mph3.5 kmh 29.65 in1004.1 mb 0.00 in0.0 mm 0.00 in0.0 mm 0.00 in0.0 mm
08:00 AM 18.9°F-7.3°C 12.2°F-11.0°C 79% 0.3 mph NE0.5 kmh NE 2.2 mph3.5 kmh 29.65 in1004.1 mb 0.00 in0.0 mm 0.00 in0.0 mm 0.00 in0.0 mm
08:05 AM 19.0°F-7.2°C 12.2°F-11.0°C 79% 0.2 mph NE0.3 kmh NE 1.1 mph1.8 kmh 29.65 in1004.1 mb 0.00 in0.0 mm 0.00 in0.0 mm 0.00 in0.0 mm
08:10 AM 19.2°F-7.1°C 12.2°F-11.0°C 79% 0.3 mph NE0.5 kmh NE 1.1 mph1.8 kmh 29.65 in1004.1 mb 0.00 in0.0 mm 0.00 in0.0 mm 0.00 in0.0 mm
08:15 AM 19.4°F-7.0°C 12.2°F-11.0°C 79% 0.7 mph NE1.1 kmh NE 2.9 mph4.7 kmh 29.65 in1004.1 mb 0.00 in0.0 mm 0.00 in0.0 mm 0.00 in0.0 mm
08:20 AM 19.6°F-6.9°C 12.2°F-11.0°C 79% 1.0 mph NE1.6 kmh NE 2.9 mph4.7 kmh 29.65 in1004.1 mb 0.00 in0.0 mm 0.00 in0.0 mm 0.00 in0.0 mm
08:25 AM 19.6°F-6.9°C 12.2°F-11.0°C 79% 0.8 mph NE1.3 kmh NE 2.9 mph4.7 kmh 29.65 in1004.1 mb 0.00 in0.0 mm 0.00 in0.0 mm 0.00 in0.0 mm
08:30 AM 19.9°F-6.7°C 14.0°F-10.0°C 79% 0.8 mph NE1.3 kmh NE 2.0 mph3.2 kmh 29.65 in1004.1 mb 0.00 in0.0 mm 0.00 in0.0 mm 0.00 in0.0 mm
08:35 AM 20.5°F-6.4°C 14.0°F-10.0°C 79% 0.9 mph NE1.4 kmh NE 2.0 mph3.2 kmh 29.65 in1004.1 mb 0.00 in0.0 mm 0.00 in0.0 mm 0.00 in0.0 mm
08:40 AM 21.0°F-6.1°C 14.0°F-10.0°C 79% 0.6 mph NE1.0 kmh NE 1.3 mph2.1 kmh 29.65 in1004.1 mb 0.00 in0.0 mm 0.00 in0.0 mm 0.00 in0.0 mm
08:45 AM 21.0°F-6.1°C 14.0°F-10.0°C 79% 0.5 mph NE0.8 kmh NE 1.3 mph2.1 kmh 29.65 in1004.1 mb 0.00 in0.0 mm 0.00 in0.0 mm 0.00 in0.0 mm
08:50 AM 21.2°F-6.0°C 14.0°F-10.0°C 79% 0.2 mph ENE0.3 kmh ENE 0.9 mph1.4 kmh 29.65 in1004.1 mb 0.00 in0.0 mm 0.00 in0.0 mm 0.00 in0.0 mm
08:55 AM 21.4°F-5.9°C 15.8°F-9.0°C 80% 0.3 mph NE0.5 kmh NE 1.6 mph2.6 kmh 29.65 in1004.1 mb 0.00 in0.0 mm 0.00 in0.0 mm 0.00 in0.0 mm
09:00 AM 21.6°F-5.8°C 15.8°F-9.0°C 80% 0.8 mph NE1.3 kmh NE 2.2 mph3.5 kmh 29.65 in1004.1 mb 0.00 in0.0 mm 0.00 in0.0 mm 0.00 in0.0 mm
09:05 AM 21.6°F-5.8°C 15.8°F-9.0°C 80% 0.7 mph NE1.1 kmh NE 2.2 mph3.5 kmh 29.45 in997.3 mb 0.00 in0.0 mm 0.00 in0.0 mm 0.00 in0.0 mm
09:10 AM 21.6°F-5.8°C 15.8°F-9.0°C 80% 0.2 mph NE0.3 kmh NE 1.1 mph1.8 kmh 29.45 in997.3 mb 0.00 in0.0 mm 0.00 in0.0 mm 0.00 in0.0 mm
09:15 AM 21.7°F-5.7°C 15.8°F-9.0°C 80% Calm Calm -- 29.45 in997.3 mb 0.00 in0.0 mm 0.00 in0.0 mm 0.00 in0.0 mm
09:20 AM 21.7°F-5.7°C 15.8°F-9.0°C 80% Calm Calm -- 29.68 in1005.1 mb 0.00 in0.0 mm 0.00 in0.0 mm 0.00 in0.0 mm
09:25 AM 22.3°F-5.4°C 15.8°F-9.0°C 80% 0.4 mph NE0.6 kmh NE 1.6 mph2.6 kmh 29.68 in1005.1 mb 0.00 in0.0 mm 0.00 in0.0 mm 0.00 in0.0 mm
09:30 AM 22.8°F-5.1°C 15.8°F-9.0°C 80% 0.7 mph NE1.1 kmh NE 1.6 mph2.6 kmh 29.68 in1005.1 mb 0.00 in0.0 mm 0.00 in0.0 mm 0.00 in0.0 mm
09:35 AM 23.0°F-5.0°C 15.8°F-9.0°C 80% 0.8 mph ENE1.3 kmh ENE 1.3 mph2.1 kmh 29.65 in1004.1 mb 0.00 in0.0 mm 0.00 in0.0 mm 0.00 in0.0 mm
09:40 AM 23.4°F-4.8°C 17.6°F-8.0°C 80% 0.6 mph ENE1.0 kmh ENE 1.1 mph1.8 kmh 29.65 in1004.1 mb 0.00 in0.0 mm 0.00 in0.0 mm 0.00 in0.0 mm
09:45 AM 23.7°F-4.6°C 17.6°F-8.0°C 80% 0.4 mph NE0.6 kmh NE 2.0 mph3.2 kmh 29.65 in1004.1 mb 0.00 in0.0 mm 0.00 in0.0 mm 0.00 in0.0 mm
09:50 AM 23.9°F-4.5°C 17.6°F-8.0°C 80% 0.7 mph NE1.1 kmh NE 2.0 mph3.2 kmh 29.68 in1005.1 mb 0.00 in0.0 mm 0.00 in0.0 mm 0.00 in0.0 mm
09:55 AM 24.3°F-4.3°C 17.6°F-8.0°C 80% 1.1 mph NE1.8 kmh NE 1.6 mph2.6 kmh 29.68 in1005.1 mb 0.00 in0.0 mm 0.00 in0.0 mm 0.00 in0.0 mm
10:00 AM 24.4°F-4.2°C 19.4°F-7.0°C 80% 0.7 mph NE1.1 kmh NE 1.6 mph2.6 kmh 29.68 in1005.1 mb 0.00 in0.0 mm 0.00 in0.0 mm 0.00 in0.0 mm
10:05 AM 24.4°F-4.2°C 19.4°F-7.0°C 80% 0.2 mph ENE0.3 kmh ENE 1.3 mph2.1 kmh 29.65 in1004.1 mb 0.00 in0.0 mm 0.00 in0.0 mm 0.00 in0.0 mm
10:10 AM 24.6°F-4.1°C 19.4°F-7.0°C 80% 0.2 mph NNE0.3 kmh NNE 1.1 mph1.8 kmh 29.65 in1004.1 mb 0.00 in0.0 mm 0.00 in0.0 mm 0.00 in0.0 mm
10:15 AM 24.8°F-4.0°C 19.4°F-7.0°C 80% 0.6 mph N1.0 kmh N 2.0 mph3.2 kmh 29.65 in1004.1 mb 0.00 in0.0 mm 0.00 in0.0 mm 0.00 in0.0 mm
10:20 AM 25.0°F-3.9°C 19.4°F-7.0°C 80% 0.8 mph N1.3 kmh N 2.0 mph3.2 kmh 29.68 in1005.1 mb 0.00 in0.0 mm 0.00 in0.0 mm 0.00 in0.0 mm
10:25 AM 25.2°F-3.8°C 19.4°F-7.0°C 80% 0.3 mph NE0.5 kmh NE 2.0 mph3.2 kmh 29.68 in1005.1 mb 0.00 in0.0 mm 0.00 in0.0 mm 0.00 in0.0 mm
10:30 AM 25.5°F-3.6°C 19.4°F-7.0°C 80% 0.7 mph NE1.1 kmh NE 1.3 mph2.1 kmh 29.68 in1005.1 mb 0.00 in0.0 mm 0.00 in0.0 mm 0.00 in0.0 mm
10:35 AM 25.9°F-3.4°C 19.4°F-7.0°C 80% 1.0 mph NE1.6 kmh NE 1.3 mph2.1 kmh 29.65 in1004.1 mb 0.00 in0.0 mm 0.00 in0.0 mm 0.00 in0.0 mm
10:40 AM 26.2°F-3.2°C 19.4°F-7.0°C 80% 0.8 mph NE1.3 kmh NE 1.6 mph2.6 kmh 29.65 in1004.1 mb 0.00 in0.0 mm 0.00 in0.0 mm 0.00 in0.0 mm
10:45 AM 26.4°F-3.1°C 21.2°F-6.0°C 80% 1.0 mph NE1.6 kmh NE 2.0 mph3.2 kmh 29.65 in1004.1 mb 0.00 in0.0 mm 0.00 in0.0 mm 0.00 in0.0 mm
10:50 AM 26.8°F-2.9°C 21.2°F-6.0°C 80% 0.9 mph NE1.4 kmh NE 2.0 mph3.2 kmh 29.65 in1004.1 mb 0.00 in0.0 mm 0.00 in0.0 mm 0.00 in0.0 mm
10:55 AM 27.3°F-2.6°C 21.2°F-6.0°C 80% 0.7 mph NE1.1 kmh NE 2.0 mph3.2 kmh 29.65 in1004.1 mb 0.00 in0.0 mm 0.00 in0.0 mm 0.00 in0.0 mm
11:00 AM 27.3°F-2.6°C 21.2°F-6.0°C 80% 0.4 mph NE0.6 kmh NE 1.3 mph2.1 kmh 29.65 in1004.1 mb 0.00 in0.0 mm 0.00 in0.0 mm 0.00 in0.0 mm
11:05 AM 27.9°F-2.3°C 21.2°F-6.0°C 80% 0.4 mph S0.6 kmh S 2.5 mph4.0 kmh 29.65 in1004.1 mb 0.00 in0.0 mm 0.00 in0.0 mm 0.00 in0.0 mm
11:10 AM 28.4°F-2.0°C 21.2°F-6.0°C 80% 0.7 mph SSW1.1 kmh SSW 2.5 mph4.0 kmh 29.65 in1004.1 mb 0.00 in0.0 mm 0.00 in0.0 mm 0.00 in0.0 mm
11:15 AM 28.8°F-1.8°C 23.0°F-5.0°C 80% 0.7 mph SSW1.1 kmh SSW 1.3 mph2.1 kmh 29.65 in1004.1 mb 0.00 in0.0 mm 0.00 in0.0 mm 0.00 in0.0 mm
11:20 AM 29.5°F-1.4°C 23.0°F-5.0°C 80% 0.5 mph SSW0.8 kmh SSW 1.6 mph2.6 kmh 29.65 in1004.1 mb 0.00 in0.0 mm 0.00 in0.0 mm 0.00 in0.0 mm
11:25 AM 30.2°F-1.0°C 23.0°F-5.0°C 80% 1.0 mph SSW1.6 kmh SSW 2.5 mph4.0 kmh 29.65 in1004.1 mb 0.00 in0.0 mm 0.00 in0.0 mm 0.00 in0.0 mm
11:30 AM 31.1°F-0.5°C 23.0°F-5.0°C 79% 1.2 mph SSW1.9 kmh SSW 2.5 mph4.0 kmh 29.65 in1004.1 mb 0.00 in0.0 mm 0.00 in0.0 mm 0.00 in0.0 mm
11:35 AM 32.7°F0.4°C 26.6°F-3.0°C 79% 1.6 mph WSW2.6 kmh WSW 3.1 mph5.0 kmh 29.68 in1005.1 mb 0.00 in0.0 mm 0.00 in0.0 mm 0.00 in0.0 mm
11:40 AM 34.2°F1.2°C 28.4°F-2.0°C 78% 2.0 mph WSW3.2 kmh WSW 3.1 mph5.0 kmh 29.68 in1005.1 mb 0.00 in0.0 mm 0.00 in0.0 mm 0.00 in0.0 mm
11:45 AM 34.7°F1.5°C 28.4°F-2.0°C 78% 1.5 mph SW2.4 kmh SW 3.1 mph5.0 kmh 29.68 in1005.1 mb 0.00 in0.0 mm 0.00 in0.0 mm 0.00 in0.0 mm
11:50 AM 36.3°F2.4°C 30.2°F-1.0°C 77% 1.6 mph SW2.6 kmh SW 2.7 mph4.3 kmh 29.65 in1004.1 mb 0.00 in0.0 mm 0.00 in0.0 mm 0.00 in0.0 mm
11:55 AM 37.0°F2.8°C 30.2°F-1.0°C 76% 1.8 mph SSW2.9 kmh SSW 4.3 mph6.9 kmh 29.65 in1004.1 mb 0.00 in0.0 mm 0.00 in0.0 mm 0.00 in0.0 mm
12:00 PM 37.8°F3.2°C 32.0°F0.0°C 75% 1.6 mph SSW2.6 kmh SSW 4.3 mph6.9 kmh 29.65 in1004.1 mb 0.00 in0.0 mm 0.00 in0.0 mm 0.00 in0.0 mm
12:05 PM 38.7°F3.7°C 32.0°F0.0°C 75% 1.1 mph SW1.8 kmh SW 3.8 mph6.1 kmh 29.68 in1005.1 mb 0.00 in0.0 mm 0.00 in0.0 mm 0.00 in0.0 mm
12:10 PM 38.1°F3.4°C 30.2°F-1.0°C 74% 0.9 mph S1.4 kmh S 2.0 mph3.2 kmh 29.68 in1005.1 mb 0.00 in0.0 mm 0.00 in0.0 mm 0.00 in0.0 mm
12:15 PM 37.8°F3.2°C 30.2°F-1.0°C 74% 1.7 mph SSW2.7 kmh SSW 4.9 mph7.9 kmh 29.68 in1005.1 mb 0.00 in0.0 mm 0.00 in0.0 mm 0.00 in0.0 mm
12:20 PM 38.7°F3.7°C 32.0°F0.0°C 74% 2.5 mph SSW4.0 kmh SSW 4.9 mph7.9 kmh 29.65 in1004.1 mb 0.00 in0.0 mm 0.00 in0.0 mm 0.00 in0.0 mm
12:25 PM 38.7°F3.7°C 32.0°F0.0°C 74% 2.1 mph SSW3.4 kmh SSW 3.4 mph5.5 kmh 29.65 in1004.1 mb 0.00 in0.0 mm 0.00 in0.0 mm 0.00 in0.0 mm
12:30 PM 39.2°F4.0°C 32.0°F0.0°C 73% 1.9 mph SSW3.1 kmh SSW 2.9 mph4.7 kmh 29.65 in1004.1 mb 0.00 in0.0 mm 0.00 in0.0 mm 0.00 in0.0 mm
12:35 PM 38.7°F3.7°C 30.2°F-1.0°C 73% 3.2 mph SSW5.1 kmh SSW 7.4 mph11.9 kmh 29.65 in1004.1 mb 0.00 in0.0 mm 0.00 in0.0 mm 0.00 in0.0 mm
12:40 PM 39.4°F4.1°C 32.0°F0.0°C 73% 4.1 mph SSW6.6 kmh SSW 7.4 mph11.9 kmh 29.65 in1004.1 mb 0.00 in0.0 mm 0.00 in0.0 mm 0.00 in0.0 mm
12:45 PM 40.5°F4.7°C 32.0°F0.0°C 73% 3.5 mph SW5.6 kmh SW 5.8 mph9.3 kmh 29.65 in1004.1 mb 0.00 in0.0 mm 0.00 in0.0 mm 0.00 in0.0 mm
12:50 PM 41.0°F5.0°C 33.8°F1.0°C 73% 3.6 mph SW5.8 kmh SW 5.6 mph9.0 kmh 29.65 in1004.1 mb 0.00 in0.0 mm 0.00 in0.0 mm 0.00 in0.0 mm
12:55 PM 39.4°F4.1°C 32.0°F0.0°C 72% 3.4 mph SSW5.5 kmh SSW 5.6 mph9.0 kmh 29.65 in1004.1 mb 0.00 in0.0 mm 0.00 in0.0 mm 0.00 in0.0 mm
01:00 PM 39.7°F4.3°C 32.0°F0.0°C 73% 3.0 mph S4.8 kmh S 3.8 mph6.1 kmh 29.65 in1004.1 mb 0.00 in0.0 mm 0.00 in0.0 mm 0.00 in0.0 mm
01:05 PM 39.4°F4.1°C 32.0°F0.0°C 73% 3.9 mph SSW6.3 kmh SSW 5.6 mph9.0 kmh 29.62 in1003.0 mb 0.00 in0.0 mm 0.00 in0.0 mm 0.00 in0.0 mm
01:10 PM 39.0°F3.9°C 32.0°F0.0°C 73% 3.3 mph SSW5.3 kmh SSW 5.6 mph9.0 kmh 29.62 in1003.0 mb 0.00 in0.0 mm 0.00 in0.0 mm 0.00 in0.0 mm
01:15 PM 39.0°F3.9°C 32.0°F0.0°C 73% 2.7 mph SSW4.3 kmh SSW 6.0 mph9.7 kmh 29.62 in1003.0 mb 0.00 in0.0 mm 0.00 in0.0 mm 0.00 in0.0 mm
01:20 PM 38.7°F3.7°C 30.2°F-1.0°C 73% 3.9 mph SSW6.3 kmh SSW 6.5 mph10.5 kmh 29.62 in1003.0 mb 0.00 in0.0 mm 0.00 in0.0 mm 0.00 in0.0 mm
01:25 PM 39.9°F4.4°C 32.0°F0.0°C 73% 4.1 mph S6.6 kmh S 6.5 mph10.5 kmh 29.62 in1003.0 mb 0.00 in0.0 mm 0.00 in0.0 mm 0.00 in0.0 mm
01:30 PM 40.5°F4.7°C 32.0°F0.0°C 73% 4.0 mph S6.4 kmh S 7.2 mph11.6 kmh 29.62 in1003.0 mb 0.00 in0.0 mm 0.00 in0.0 mm 0.00 in0.0 mm
01:35 PM 40.3°F4.6°C 32.0°F0.0°C 73% 4.9 mph SSW7.9 kmh SSW 7.8 mph12.6 kmh 29.62 in1003.0 mb 0.00 in0.0 mm 0.00 in0.0 mm 0.00 in0.0 mm
01:40 PM 39.6°F4.2°C 32.0°F0.0°C 73% 5.5 mph SSW8.9 kmh SSW 8.1 mph13.0 kmh 29.62 in1003.0 mb 0.00 in0.0 mm 0.00 in0.0 mm 0.00 in0.0 mm
01:45 PM 39.2°F4.0°C 32.0°F0.0°C 73% 4.4 mph SSW7.1 kmh SSW 8.1 mph13.0 kmh 29.62 in1003.0 mb 0.00 in0.0 mm 0.00 in0.0 mm 0.00 in0.0 mm
01:50 PM 39.0°F3.9°C 32.0°F0.0°C 73% 3.0 mph S4.8 kmh S 4.0 mph6.4 kmh 29.62 in1003.0 mb 0.00 in0.0 mm 0.00 in0.0 mm 0.00 in0.0 mm
01:55 PM 39.0°F3.9°C 32.0°F0.0°C 74% 3.5 mph S5.6 kmh S 4.7 mph7.6 kmh 29.62 in1003.0 mb 0.11 in2.8 mm 1.32 in33.5 mm 0.11 in2.8 mm
02:00 PM 38.8°F3.8°C 32.0°F0.0°C 74% 3.0 mph S4.8 kmh S 4.9 mph7.9 kmh 29.62 in1003.0 mb 0.11 in2.8 mm 0.00 in0.0 mm 0.11 in2.8 mm
02:05 PM 38.7°F3.7°C 32.0°F0.0°C 74% 2.5 mph S4.0 kmh S 5.6 mph9.0 kmh 29.62 in1003.0 mb 0.11 in2.8 mm 0.00 in0.0 mm 0.11 in2.8 mm
02:10 PM 38.7°F3.7°C 32.0°F0.0°C 74% 2.7 mph SSW4.3 kmh SSW 5.8 mph9.3 kmh 29.62 in1003.0 mb 0.11 in2.8 mm 0.00 in0.0 mm 0.11 in2.8 mm
02:15 PM 38.7°F3.7°C 32.0°F0.0°C 74% 2.6 mph SSW4.2 kmh SSW 5.8 mph9.3 kmh 29.62 in1003.0 mb 0.11 in2.8 mm 0.00 in0.0 mm 0.11 in2.8 mm
02:20 PM 38.5°F3.6°C 32.0°F0.0°C 74% 2.7 mph SSW4.3 kmh SSW 4.3 mph6.9 kmh 29.62 in1003.0 mb 0.11 in2.8 mm 0.00 in0.0 mm 0.11 in2.8 mm
02:25 PM 38.3°F3.5°C 32.0°F0.0°C 74% 2.8 mph SSW4.5 kmh SSW 4.0 mph6.4 kmh 29.62 in1003.0 mb 0.11 in2.8 mm 0.00 in0.0 mm 0.11 in2.8 mm
02:30 PM 38.3°F3.5°C 32.0°F0.0°C 74% 3.2 mph SSW5.1 kmh SSW 4.9 mph7.9 kmh 29.62 in1003.0 mb 0.11 in2.8 mm 0.00 in0.0 mm 0.11 in2.8 mm
02:35 PM 38.3°F3.5°C 32.0°F0.0°C 74% 3.8 mph S6.1 kmh S 5.4 mph8.7 kmh 29.62 in1003.0 mb 0.11 in2.8 mm 0.00 in0.0 mm 0.11 in2.8 mm
02:40 PM 38.1°F3.4°C 30.2°F-1.0°C 74% 3.6 mph S5.8 kmh S 5.4 mph8.7 kmh 29.62 in1003.0 mb 0.11 in2.8 mm 0.00 in0.0 mm 0.11 in2.8 mm
02:45 PM 38.1°F3.4°C 30.2°F-1.0°C 74% 3.0 mph S4.8 kmh S 4.3 mph6.9 kmh 29.62 in1003.0 mb 0.11 in2.8 mm 0.00 in0.0 mm 0.11 in2.8 mm
02:50 PM 38.1°F3.4°C 30.2°F-1.0°C 74% 2.6 mph S4.2 kmh S 4.3 mph6.9 kmh 29.62 in1003.0 mb 0.11 in2.8 mm 0.00 in0.0 mm 0.11 in2.8 mm
02:55 PM 37.9°F3.3°C 30.2°F-1.0°C 74% 2.5 mph S4.0 kmh S 5.8 mph9.3 kmh 29.62 in1003.0 mb 0.00 in0.0 mm 0.00 in0.0 mm 0.11 in2.8 mm
03:00 PM 37.8°F3.2°C 32.0°F0.0°C 75% 2.0 mph S3.2 kmh S 5.8 mph9.3 kmh 29.62 in1003.0 mb 0.00 in0.0 mm 0.00 in0.0 mm 0.11 in2.8 mm
03:05 PM 37.6°F3.1°C 30.2°F-1.0°C 75% 1.5 mph S2.4 kmh S 2.5 mph4.0 kmh 29.53 in1000.0 mb 0.00 in0.0 mm 0.00 in0.0 mm 0.11 in2.8 mm
03:10 PM 37.6°F3.1°C 30.2°F-1.0°C 75% 1.3 mph S2.1 kmh S 2.0 mph3.2 kmh 29.53 in1000.0 mb 0.00 in0.0 mm 0.00 in0.0 mm 0.11 in2.8 mm
03:15 PM 37.4°F3.0°C 30.2°F-1.0°C 76% 1.1 mph S1.8 kmh S 2.9 mph4.7 kmh 29.53 in1000.0 mb 0.00 in0.0 mm 0.00 in0.0 mm 0.11 in2.8 mm
03:20 PM 37.4°F3.0°C 30.2°F-1.0°C 76% 1.4 mph S2.3 kmh S 2.9 mph4.7 kmh 29.56 in1001.0 mb 0.00 in0.0 mm 0.00 in0.0 mm 0.11 in2.8 mm
03:25 PM 37.4°F3.0°C 32.0°F0.0°C 77% 1.6 mph S2.6 kmh S 2.7 mph4.3 kmh 29.56 in1001.0 mb 0.00 in0.0 mm 0.00 in0.0 mm 0.11 in2.8 mm
03:30 PM 37.2°F2.9°C 32.0°F0.0°C 77% 0.6 mph S1.0 kmh S 2.0 mph3.2 kmh 29.56 in1001.0 mb 0.00 in0.0 mm 0.00 in0.0 mm 0.11 in2.8 mm
03:35 PM 37.2°F2.9°C 32.0°F0.0°C 77% Calm Calm -- 29.56 in1001.0 mb 0.00 in0.0 mm 0.00 in0.0 mm 0.11 in2.8 mm
03:40 PM 37.2°F2.9°C 32.0°F0.0°C 77% 0.3 mph S0.5 kmh S 2.0 mph3.2 kmh 29.56 in1001.0 mb 0.00 in0.0 mm 0.00 in0.0 mm 0.11 in2.8 mm
03:45 PM 37.2°F2.9°C 32.0°F0.0°C 77% 1.1 mph S1.8 kmh S 3.1 mph5.0 kmh 29.56 in1001.0 mb 0.00 in0.0 mm 0.00 in0.0 mm 0.11 in2.8 mm
03:50 PM 37.0°F2.8°C 32.0°F0.0°C 77% 1.6 mph S2.6 kmh S 3.1 mph5.0 kmh 29.56 in1001.0 mb 0.00 in0.0 mm 0.00 in0.0 mm 0.11 in2.8 mm
03:55 PM 37.0°F2.8°C 32.0°F0.0°C 77% 2.8 mph S4.5 kmh S 6.5 mph10.5 kmh 29.56 in1001.0 mb 0.00 in0.0 mm 0.00 in0.0 mm 0.11 in2.8 mm
04:00 PM 37.0°F2.8°C 32.0°F0.0°C 77% 3.4 mph S5.5 kmh S 6.5 mph10.5 kmh 29.56 in1001.0 mb 0.00 in0.0 mm 0.00 in0.0 mm 0.11 in2.8 mm
04:05 PM 37.0°F2.8°C 32.0°F0.0°C 77% 3.2 mph S5.1 kmh S 4.9 mph7.9 kmh 29.56 in1001.0 mb 0.00 in0.0 mm 0.00 in0.0 mm 0.11 in2.8 mm
04:10 PM 37.0°F2.8°C 32.0°F0.0°C 77% 4.0 mph S6.4 kmh S 7.6 mph12.2 kmh 29.56 in1001.0 mb 0.00 in0.0 mm 0.00 in0.0 mm 0.11 in2.8 mm
04:15 PM 37.0°F2.8°C 32.0°F0.0°C 78% 4.1 mph S6.6 kmh S 7.6 mph12.2 kmh 29.56 in1001.0 mb 0.00 in0.0 mm 0.00 in0.0 mm 0.11 in2.8 mm
04:20 PM 37.0°F2.8°C 32.0°F0.0°C 78% 4.2 mph S6.8 kmh S 7.4 mph11.9 kmh 29.56 in1001.0 mb 0.00 in0.0 mm 0.00 in0.0 mm 0.11 in2.8 mm
04:25 PM 37.0°F2.8°C 32.0°F0.0°C 78% 4.4 mph S7.1 kmh S 7.4 mph11.9 kmh 29.56 in1001.0 mb 0.00 in0.0 mm 0.00 in0.0 mm 0.11 in2.8 mm
04:30 PM 37.0°F2.8°C 32.0°F0.0°C 78% 5.0 mph S8.0 kmh S 8.7 mph14.0 kmh 29.56 in1001.0 mb 0.00 in0.0 mm 0.00 in0.0 mm 0.11 in2.8 mm
04:35 PM 37.0°F2.8°C 32.0°F0.0°C 78% 4.9 mph S7.9 kmh S 9.4 mph15.1 kmh 29.56 in1001.0 mb 0.00 in0.0 mm 0.00 in0.0 mm 0.11 in2.8 mm
04:40 PM 36.9°F2.7°C 30.2°F-1.0°C 78% 3.5 mph S5.6 kmh S 9.4 mph15.1 kmh 29.56 in1001.0 mb 0.00 in0.0 mm 0.00 in0.0 mm 0.11 in2.8 mm
04:45 PM 36.9°F2.7°C 30.2°F-1.0°C 78% 3.1 mph SSW5.0 kmh SSW 5.6 mph9.0 kmh 29.56 in1001.0 mb 0.00 in0.0 mm 0.00 in0.0 mm 0.11 in2.8 mm
04:50 PM 36.7°F2.6°C 30.2°F-1.0°C 78% 3.6 mph SSW5.8 kmh SSW 5.6 mph9.0 kmh 29.56 in1001.0 mb 0.00 in0.0 mm 0.00 in0.0 mm 0.11 in2.8 mm
04:55 PM 36.7°F2.6°C 30.2°F-1.0°C 78% 3.9 mph S6.3 kmh S 9.4 mph15.1 kmh 29.56 in1001.0 mb 0.00 in0.0 mm 0.00 in0.0 mm 0.11 in2.8 mm
05:00 PM 36.7°F2.6°C 30.2°F-1.0°C 78% 4.2 mph S6.8 kmh S 9.4 mph15.1 kmh 29.56 in1001.0 mb 0.00 in0.0 mm 0.00 in0.0 mm 0.11 in2.8 mm
05:05 PM 36.7°F2.6°C 30.2°F-1.0°C 78% 4.0 mph SSW6.4 kmh SSW 9.4 mph15.1 kmh 29.53 in1000.0 mb 0.00 in0.0 mm 0.00 in0.0 mm 0.11 in2.8 mm
05:10 PM 36.7°F2.6°C 30.2°F-1.0°C 78% 3.5 mph SW5.6 kmh SW 5.8 mph9.3 kmh 29.53 in1000.0 mb 0.00 in0.0 mm 0.00 in0.0 mm 0.11 in2.8 mm
05:15 PM 36.7°F2.6°C 30.2°F-1.0°C 78% 2.6 mph SSW4.2 kmh SSW 5.8 mph9.3 kmh 29.53 in1000.0 mb 0.00 in0.0 mm 0.00 in0.0 mm 0.11 in2.8 mm
05:20 PM 36.7°F2.6°C 30.2°F-1.0°C 78% 1.5 mph SSW2.4 kmh SSW 3.6 mph5.8 kmh 29.53 in1000.0 mb 0.00 in0.0 mm 0.00 in0.0 mm 0.11 in2.8 mm
05:25 PM 36.7°F2.6°C 30.2°F-1.0°C 78% 2.0 mph SW3.2 kmh SW 5.8 mph9.3 kmh 29.53 in1000.0 mb 0.00 in0.0 mm 0.00 in0.0 mm 0.11 in2.8 mm
05:30 PM 36.5°F2.5°C 30.2°F-1.0°C 78% 2.8 mph SSW4.5 kmh SSW 5.8 mph9.3 kmh 29.53 in1000.0 mb 0.00 in0.0 mm 0.00 in0.0 mm 0.11 in2.8 mm
05:35 PM 36.5°F2.5°C 30.2°F-1.0°C 78% 2.2 mph SSW3.5 kmh SSW 3.6 mph5.8 kmh 29.53 in1000.0 mb 0.00 in0.0 mm 0.00 in0.0 mm 0.11 in2.8 mm
05:40 PM 36.5°F2.5°C 32.0°F0.0°C 79% 1.4 mph S2.3 kmh S 3.4 mph5.5 kmh 29.53 in1000.0 mb 0.00 in0.0 mm 0.00 in0.0 mm 0.11 in2.8 mm
05:45 PM 36.3°F2.4°C 30.2°F-1.0°C 79% 1.3 mph S2.1 kmh S 2.5 mph4.0 kmh 29.53 in1000.0 mb 0.00 in0.0 mm 0.00 in0.0 mm 0.11 in2.8 mm
05:50 PM 36.5°F2.5°C 32.0°F0.0°C 79% 1.6 mph SSW2.6 kmh SSW 2.5 mph4.0 kmh 29.50 in999.0 mb 0.00 in0.0 mm 0.00 in0.0 mm 0.11 in2.8 mm
05:55 PM 36.5°F2.5°C 32.0°F0.0°C 79% 1.8 mph SSW2.9 kmh SSW 4.0 mph6.4 kmh 29.50 in999.0 mb 0.00 in0.0 mm 0.00 in0.0 mm 0.11 in2.8 mm
06:00 PM 36.5°F2.5°C 32.0°F0.0°C 79% 2.0 mph SSW3.2 kmh SSW 4.0 mph6.4 kmh 29.50 in999.0 mb 0.00 in0.0 mm 0.00 in0.0 mm 0.11 in2.8 mm
06:05 PM 36.5°F2.5°C 32.0°F0.0°C 79% 1.7 mph S2.7 kmh S 2.9 mph4.7 kmh 29.53 in1000.0 mb 0.00 in0.0 mm 0.00 in0.0 mm 0.11 in2.8 mm
06:10 PM 36.5°F2.5°C 32.0°F0.0°C 79% 1.4 mph S2.3 kmh S 2.5 mph4.0 kmh 29.53 in1000.0 mb 0.00 in0.0 mm 0.00 in0.0 mm 0.11 in2.8 mm
06:15 PM 36.7°F2.6°C 32.0°F0.0°C 79% 1.2 mph S1.9 kmh S 2.0 mph3.2 kmh 29.53 in1000.0 mb 0.00 in0.0 mm 0.00 in0.0 mm 0.11 in2.8 mm
06:20 PM 36.7°F2.6°C 32.0°F0.0°C 79% 1.1 mph S1.8 kmh S 3.6 mph5.8 kmh 29.50 in999.0 mb 0.00 in0.0 mm 0.00 in0.0 mm 0.11 in2.8 mm
06:25 PM 36.7°F2.6°C 32.0°F0.0°C 79% 0.8 mph S1.3 kmh S 3.6 mph5.8 kmh 29.50 in999.0 mb 0.00 in0.0 mm 0.00 in0.0 mm 0.11 in2.8 mm
06:30 PM 36.7°F2.6°C 32.0°F0.0°C 79% 0.6 mph SSE1.0 kmh SSE 1.3 mph2.1 kmh 29.50 in999.0 mb 0.00 in0.0 mm 0.00 in0.0 mm 0.11 in2.8 mm
06:35 PM 36.7°F2.6°C 32.0°F0.0°C 79% 1.0 mph SSE1.6 kmh SSE 1.6 mph2.6 kmh 29.53 in1000.0 mb 0.00 in0.0 mm 0.00 in0.0 mm 0.11 in2.8 mm
06:40 PM 36.7°F2.6°C 32.0°F0.0°C 79% 0.9 mph S1.4 kmh S 2.7 mph4.3 kmh 29.53 in1000.0 mb 0.00 in0.0 mm 0.00 in0.0 mm 0.11 in2.8 mm
06:45 PM 36.7°F2.6°C 32.0°F0.0°C 79% 0.2 mph SSW0.3 kmh SSW 2.7 mph4.3 kmh 29.53 in1000.0 mb 0.00 in0.0 mm 0.00 in0.0 mm 0.11 in2.8 mm
06:50 PM 36.7°F2.6°C 32.0°F0.0°C 79% 0.3 mph ESE0.5 kmh ESE 2.0 mph3.2 kmh 29.47 in998.0 mb 0.00 in0.0 mm 0.00 in0.0 mm 0.11 in2.8 mm
06:55 PM 36.5°F2.5°C 32.0°F0.0°C 79% 1.5 mph E2.4 kmh E 3.8 mph6.1 kmh 29.47 in998.0 mb 0.00 in0.0 mm 0.00 in0.0 mm 0.11 in2.8 mm
07:00 PM 36.5°F2.5°C 32.0°F0.0°C 80% 2.4 mph E3.9 kmh E 3.8 mph6.1 kmh 29.47 in998.0 mb 0.00 in0.0 mm 0.00 in0.0 mm 0.11 in2.8 mm
07:05 PM 36.5°F2.5°C 32.0°F0.0°C 80% 1.7 mph E2.7 kmh E 3.8 mph6.1 kmh 29.53 in1000.0 mb 0.00 in0.0 mm 0.00 in0.0 mm 0.11 in2.8 mm
07:10 PM 36.7°F2.6°C 32.0°F0.0°C 80% 0.4 mph ENE0.6 kmh ENE 2.0 mph3.2 kmh 29.53 in1000.0 mb 0.00 in0.0 mm 0.00 in0.0 mm 0.11 in2.8 mm
07:15 PM 36.5°F2.5°C 32.0°F0.0°C 80% 0.9 mph WSW1.4 kmh WSW 3.8 mph6.1 kmh 29.53 in1000.0 mb 0.00 in0.0 mm 0.00 in0.0 mm 0.11 in2.8 mm
07:20 PM 36.5°F2.5°C 32.0°F0.0°C 80% 0.7 mph WSW1.1 kmh WSW 3.8 mph6.1 kmh 29.50 in999.0 mb 0.00 in0.0 mm 0.00 in0.0 mm 0.11 in2.8 mm
07:25 PM 36.7°F2.6°C 32.0°F0.0°C 80% 0.8 mph SW1.3 kmh SW 3.8 mph6.1 kmh 29.50 in999.0 mb 0.00 in0.0 mm 0.00 in0.0 mm 0.11 in2.8 mm
07:30 PM 36.7°F2.6°C 32.0°F0.0°C 80% 1.1 mph SSW1.8 kmh SSW 2.7 mph4.3 kmh 29.50 in999.0 mb 0.00 in0.0 mm 0.00 in0.0 mm 0.11 in2.8 mm
07:35 PM 36.9°F2.7°C 32.0°F0.0°C 80% 1.1 mph SSW1.8 kmh SSW 2.7 mph4.3 kmh 29.45 in997.3 mb 0.00 in0.0 mm 0.00 in0.0 mm 0.11 in2.8 mm
07:40 PM 36.9°F2.7°C 32.0°F0.0°C 80% 1.0 mph SSW1.6 kmh SSW 2.7 mph4.3 kmh 29.45 in997.3 mb 0.00 in0.0 mm 0.00 in0.0 mm 0.11 in2.8 mm
07:45 PM 37.0°F2.8°C 32.0°F0.0°C 80% 1.6 mph SSW2.6 kmh SSW 3.8 mph6.1 kmh 29.45 in997.3 mb 0.00 in0.0 mm 0.00 in0.0 mm 0.11 in2.8 mm
07:50 PM 37.0°F2.8°C 32.0°F0.0°C 80% 2.1 mph S3.4 kmh S 4.3 mph6.9 kmh 29.50 in999.0 mb 0.00 in0.0 mm 0.00 in0.0 mm 0.11 in2.8 mm
07:55 PM 37.2°F2.9°C 32.0°F0.0°C 80% 2.4 mph SSW3.9 kmh SSW 4.3 mph6.9 kmh 29.50 in999.0 mb 0.00 in0.0 mm 0.00 in0.0 mm 0.11 in2.8 mm
08:00 PM 37.0°F2.8°C 32.0°F0.0°C 80% 3.5 mph SSW5.6 kmh SSW 7.2 mph11.6 kmh 29.50 in999.0 mb 0.00 in0.0 mm 0.00 in0.0 mm 0.11 in2.8 mm
08:05 PM 37.2°F2.9°C 32.0°F0.0°C 80% 4.9 mph SSW7.9 kmh SSW 7.8 mph12.6 kmh 29.50 in999.0 mb 0.00 in0.0 mm 0.00 in0.0 mm 0.11 in2.8 mm
08:10 PM 37.2°F2.9°C 32.0°F0.0°C 80% 5.0 mph SSW8.0 kmh SSW 7.8 mph12.6 kmh 29.50 in999.0 mb 0.00 in0.0 mm 0.00 in0.0 mm 0.11 in2.8 mm
08:15 PM 37.2°F2.9°C 32.0°F0.0°C 80% 3.9 mph SSW6.3 kmh SSW 5.6 mph9.0 kmh 29.50 in999.0 mb 0.00 in0.0 mm 0.00 in0.0 mm 0.11 in2.8 mm
08:20 PM 37.2°F2.9°C 32.0°F0.0°C 80% 2.9 mph SSW4.7 kmh SSW 5.6 mph9.0 kmh 29.50 in999.0 mb 0.00 in0.0 mm 0.00 in0.0 mm 0.11 in2.8 mm
08:25 PM 37.2°F2.9°C 32.0°F0.0°C 80% 2.3 mph SSW3.7 kmh SSW 4.0 mph6.4 kmh 29.50 in999.0 mb 0.00 in0.0 mm 0.00 in0.0 mm 0.11 in2.8 mm
08:30 PM 37.0°F2.8°C 32.0°F0.0°C 80% 2.7 mph SSW4.3 kmh SSW 4.3 mph6.9 kmh 29.50 in999.0 mb 0.00 in0.0 mm 0.00 in0.0 mm 0.11 in2.8 mm
08:35 PM 37.2°F2.9°C 32.0°F0.0°C 80% 3.3 mph SSW5.3 kmh SSW 7.6 mph12.2 kmh 29.50 in999.0 mb 0.00 in0.0 mm 0.00 in0.0 mm 0.11 in2.8 mm
08:40 PM 37.0°F2.8°C 32.0°F0.0°C 80% 2.9 mph SSW4.7 kmh SSW 7.6 mph12.2 kmh 29.50 in999.0 mb 0.00 in0.0 mm 0.00 in0.0 mm 0.11 in2.8 mm
08:45 PM 37.0°F2.8°C 32.0°F0.0°C 80% 0.9 mph SSW1.4 kmh SSW 4.7 mph7.6 kmh 29.50 in999.0 mb 0.00 in0.0 mm 0.00 in0.0 mm 0.11 in2.8 mm
08:50 PM 36.9°F2.7°C 32.0°F0.0°C 80% 0.1 mph SSW0.2 kmh SSW 0.9 mph1.4 kmh 29.50 in999.0 mb 0.00 in0.0 mm 0.00 in0.0 mm 0.11 in2.8 mm
08:55 PM 37.0°F2.8°C 32.0°F0.0°C 80% 0.3 mph SW0.5 kmh SW 1.3 mph2.1 kmh 29.50 in999.0 mb 0.00 in0.0 mm 0.00 in0.0 mm 0.11 in2.8 mm
09:00 PM 37.0°F2.8°C 32.0°F0.0°C 80% 0.9 mph S1.4 kmh S 2.5 mph4.0 kmh 29.50 in999.0 mb 0.00 in0.0 mm 0.00 in0.0 mm 0.11 in2.8 mm
09:05 PM 37.0°F2.8°C 32.0°F0.0°C 80% 0.9 mph S1.4 kmh S 2.5 mph4.0 kmh 29.45 in997.3 mb 0.00 in0.0 mm 0.00 in0.0 mm 0.11 in2.8 mm
09:10 PM 36.9°F2.7°C 32.0°F0.0°C 80% 0.3 mph SSE0.5 kmh SSE 1.6 mph2.6 kmh 29.45 in997.3 mb 0.00 in0.0 mm 0.00 in0.0 mm 0.11 in2.8 mm
09:15 PM 36.9°F2.7°C 32.0°F0.0°C 80% 0.7 mph SSW1.1 kmh SSW 3.1 mph5.0 kmh 29.45 in997.3 mb 0.00 in0.0 mm 0.00 in0.0 mm 0.11 in2.8 mm
09:20 PM 36.9°F2.7°C 32.0°F0.0°C 80% 0.7 mph SW1.1 kmh SW 3.1 mph5.0 kmh 29.50 in999.0 mb 0.00 in0.0 mm 0.00 in0.0 mm 0.11 in2.8 mm
09:25 PM 36.7°F2.6°C 32.0°F0.0°C 80% 0.6 mph SW1.0 kmh SW 3.1 mph5.0 kmh 29.50 in999.0 mb 0.00 in0.0 mm 0.00 in0.0 mm 0.11 in2.8 mm
09:30 PM 36.7°F2.6°C 32.0°F0.0°C 81% 1.1 mph SW1.8 kmh SW 3.1 mph5.0 kmh 29.50 in999.0 mb 0.00 in0.0 mm 0.00 in0.0 mm 0.11 in2.8 mm
09:35 PM 36.5°F2.5°C 32.0°F0.0°C 81% 1.1 mph SW1.8 kmh SW 2.9 mph4.7 kmh 29.50 in999.0 mb 0.00 in0.0 mm 0.00 in0.0 mm 0.11 in2.8 mm
09:40 PM 36.5°F2.5°C 32.0°F0.0°C 81% 0.7 mph SW1.1 kmh SW 2.2 mph3.5 kmh 29.50 in999.0 mb 0.00 in0.0 mm 0.00 in0.0 mm 0.11 in2.8 mm
09:45 PM 36.5°F2.5°C 32.0°F0.0°C 81% 0.9 mph SSW1.4 kmh SSW 2.7 mph4.3 kmh 29.50 in999.0 mb 0.00 in0.0 mm 0.00 in0.0 mm 0.11 in2.8 mm
09:50 PM 36.5°F2.5°C 32.0°F0.0°C 81% 1.2 mph SSW1.9 kmh SSW 2.9 mph4.7 kmh 29.50 in999.0 mb 0.00 in0.0 mm 0.00 in0.0 mm 0.11 in2.8 mm
09:55 PM 36.3°F2.4°C 32.0°F0.0°C 81% 1.3 mph SW2.1 kmh SW 3.4 mph5.5 kmh 29.50 in999.0 mb 0.00 in0.0 mm 0.00 in0.0 mm 0.11 in2.8 mm
10:00 PM 36.5°F2.5°C 32.0°F0.0°C 81% 1.8 mph SW2.9 kmh SW 4.0 mph6.4 kmh 29.50 in999.0 mb 0.00 in0.0 mm 0.00 in0.0 mm 0.11 in2.8 mm
10:05 PM 36.5°F2.5°C 32.0°F0.0°C 81% 2.3 mph SW3.7 kmh SW 4.0 mph6.4 kmh 29.47 in998.0 mb 0.00 in0.0 mm 0.00 in0.0 mm 0.11 in2.8 mm
10:10 PM 36.5°F2.5°C 32.0°F0.0°C 81% 2.1 mph SW3.4 kmh SW 3.6 mph5.8 kmh 29.47 in998.0 mb 0.00 in0.0 mm 0.00 in0.0 mm 0.11 in2.8 mm
10:15 PM 36.5°F2.5°C 32.0°F0.0°C 81% 1.9 mph S3.1 kmh S 3.8 mph6.1 kmh 29.47 in998.0 mb 0.00 in0.0 mm 0.00 in0.0 mm 0.11 in2.8 mm
10:20 PM 36.5°F2.5°C 32.0°F0.0°C 81% 2.1 mph S3.4 kmh S 3.8 mph6.1 kmh 29.47 in998.0 mb 0.00 in0.0 mm 0.00 in0.0 mm 0.11 in2.8 mm
10:25 PM 36.5°F2.5°C 32.0°F0.0°C 81% 2.1 mph S3.4 kmh S 4.0 mph6.4 kmh 29.47 in998.0 mb 0.00 in0.0 mm 0.00 in0.0 mm 0.11 in2.8 mm
10:30 PM 36.5°F2.5°C 32.0°F0.0°C 81% 2.0 mph S3.2 kmh S 4.0 mph6.4 kmh 29.47 in998.0 mb 0.00 in0.0 mm 0.00 in0.0 mm 0.11 in2.8 mm
10:35 PM 36.7°F2.6°C 32.0°F0.0°C 81% 1.9 mph S3.1 kmh S 4.0 mph6.4 kmh 29.47 in998.0 mb 0.00 in0.0 mm 0.00 in0.0 mm 0.11 in2.8 mm
10:40 PM 36.7°F2.6°C 32.0°F0.0°C 81% 2.1 mph S3.4 kmh S 4.0 mph6.4 kmh 29.47 in998.0 mb 0.00 in0.0 mm 0.00 in0.0 mm 0.11 in2.8 mm
10:45 PM 36.7°F2.6°C 32.0°F0.0°C 81% 1.5 mph S2.4 kmh S 3.4 mph5.5 kmh 29.47 in998.0 mb 0.00 in0.0 mm 0.00 in0.0 mm 0.11 in2.8 mm
10:50 PM 36.7°F2.6°C 32.0°F0.0°C 81% 0.4 mph S0.6 kmh S 2.0 mph3.2 kmh 29.47 in998.0 mb 0.00 in0.0 mm 0.00 in0.0 mm 0.11 in2.8 mm
10:55 PM 36.3°F2.4°C 32.0°F0.0°C 81% 0.4 mph S0.6 kmh S 2.0 mph3.2 kmh 29.47 in998.0 mb 0.00 in0.0 mm 0.00 in0.0 mm 0.11 in2.8 mm
11:00 PM 36.5°F2.5°C 32.0°F0.0°C 81% 0.8 mph S1.3 kmh S 4.9 mph7.9 kmh 29.47 in998.0 mb 0.00 in0.0 mm 0.00 in0.0 mm 0.11 in2.8 mm
11:05 PM 36.5°F2.5°C 32.0°F0.0°C 81% 1.9 mph SSW3.1 kmh SSW 4.9 mph7.9 kmh 29.47 in998.0 mb 0.00 in0.0 mm 0.00 in0.0 mm 0.11 in2.8 mm
11:10 PM 36.5°F2.5°C 32.0°F0.0°C 82% 2.2 mph SSW3.5 kmh SSW 3.8 mph6.1 kmh 29.47 in998.0 mb 0.00 in0.0 mm 0.00 in0.0 mm 0.11 in2.8 mm
11:15 PM 36.5°F2.5°C 32.0°F0.0°C 82% 1.5 mph SSW2.4 kmh SSW 3.6 mph5.8 kmh 29.47 in998.0 mb 0.00 in0.0 mm 0.00 in0.0 mm 0.11 in2.8 mm
11:20 PM 36.5°F2.5°C 32.0°F0.0°C 82% 1.3 mph S2.1 kmh S 2.9 mph4.7 kmh 29.45 in997.3 mb 0.00 in0.0 mm 0.00 in0.0 mm 0.11 in2.8 mm
11:25 PM 36.5°F2.5°C 32.0°F0.0°C 82% 2.3 mph S3.7 kmh S 4.0 mph6.4 kmh 29.45 in997.3 mb 0.00 in0.0 mm 0.00 in0.0 mm 0.11 in2.8 mm
11:30 PM 36.7°F2.6°C 32.0°F0.0°C 82% 3.0 mph SSW4.8 kmh SSW 5.8 mph9.3 kmh 29.45 in997.3 mb 0.00 in0.0 mm 0.00 in0.0 mm 0.11 in2.8 mm
11:35 PM 36.7°F2.6°C 32.0°F0.0°C 82% 3.8 mph SSW6.1 kmh SSW 6.0 mph9.7 kmh 29.47 in998.0 mb 0.00 in0.0 mm 0.00 in0.0 mm 0.11 in2.8 mm
11:40 PM 36.9°F2.7°C 32.0°F0.0°C 82% 4.9 mph SSW7.9 kmh SSW 8.1 mph13.0 kmh 29.47 in998.0 mb 0.00 in0.0 mm 0.00 in0.0 mm 0.11 in2.8 mm
11:45 PM 37.0°F2.8°C 33.8°F1.0°C 82% 4.6 mph SSW7.4 kmh SSW 8.5 mph13.7 kmh 29.47 in998.0 mb 0.00 in0.0 mm 0.00 in0.0 mm 0.11 in2.8 mm
11:50 PM 37.0°F2.8°C 33.8°F1.0°C 82% 5.1 mph S8.2 kmh S 8.5 mph13.7 kmh 29.45 in997.3 mb 0.00 in0.0 mm 0.00 in0.0 mm 0.11 in2.8 mm
11:55 PM 37.0°F2.8°C 33.8°F1.0°C 82% 5.5 mph S8.9 kmh S 8.5 mph13.7 kmh 29.45 in997.3 mb 0.00 in0.0 mm 0.00 in0.0 mm 0.11 in2.8 mm